sensor_id;sensor_type;location;lat;lon;timestamp;P1;durP1;ratioP1;P2;durP2;ratioP2
85738;SDS011;76182;41.498;22.100;2024-02-21T00:00:08;34.28;;;18.42;;
85738;SDS011;76182;41.498;22.100;2024-02-21T00:02:36;33.60;;;18.40;;
85738;SDS011;76182;41.498;22.100;2024-02-21T00:05:02;33.20;;;18.42;;
85738;SDS011;76182;41.498;22.100;2024-02-21T00:07:27;39.05;;;20.05;;
85738;SDS011;76182;41.498;22.100;2024-02-21T00:09:53;37.92;;;20.23;;
85738;SDS011;76182;41.498;22.100;2024-02-21T00:12:18;40.70;;;22.95;;
85738;SDS011;76182;41.498;22.100;2024-02-21T00:14:44;44.88;;;21.65;;
85738;SDS011;76182;41.498;22.100;2024-02-21T00:17:10;38.10;;;19.83;;
85738;SDS011;76182;41.498;22.100;2024-02-21T00:19:35;37.30;;;19.30;;
85738;SDS011;76182;41.498;22.100;2024-02-21T00:22:01;49.13;;;21.17;;
85738;SDS011;76182;41.498;22.100;2024-02-21T00:24:26;41.70;;;20.30;;
85738;SDS011;76182;41.498;22.100;2024-02-21T00:26:51;43.60;;;19.95;;
85738;SDS011;76182;41.498;22.100;2024-02-21T00:29:18;37.05;;;18.85;;
85738;SDS011;76182;41.498;22.100;2024-02-21T00:31:43;37.60;;;18.20;;
85738;SDS011;76182;41.498;22.100;2024-02-21T00:34:09;34.65;;;18.15;;
85738;SDS011;76182;41.498;22.100;2024-02-21T00:36:36;38.05;;;18.75;;
85738;SDS011;76182;41.498;22.100;2024-02-21T00:39:01;33.58;;;18.15;;
85738;SDS011;76182;41.498;22.100;2024-02-21T00:41:27;34.17;;;18.60;;
85738;SDS011;76182;41.498;22.100;2024-02-21T00:43:52;34.33;;;17.60;;
85738;SDS011;76182;41.498;22.100;2024-02-21T00:46:18;33.80;;;16.95;;
85738;SDS011;76182;41.498;22.100;2024-02-21T00:48:43;29.88;;;17.42;;
85738;SDS011;76182;41.498;22.100;2024-02-21T00:51:08;38.03;;;17.90;;
85738;SDS011;76182;41.498;22.100;2024-02-21T00:53:34;35.97;;;17.10;;
85738;SDS011;76182;41.498;22.100;2024-02-21T00:56:03;35.45;;;17.23;;
85738;SDS011;76182;41.498;22.100;2024-02-21T00:58:30;33.10;;;17.33;;
85738;SDS011;76182;41.498;22.100;2024-02-21T01:00:55;40.30;;;17.83;;
85738;SDS011;76182;41.498;22.100;2024-02-21T01:03:21;33.88;;;17.58;;
85738;SDS011;76182;41.498;22.100;2024-02-21T01:05:46;33.83;;;17.10;;
85738;SDS011;76182;41.498;22.100;2024-02-21T01:08:12;34.65;;;16.70;;
85738;SDS011;76182;41.498;22.100;2024-02-21T01:10:37;36.25;;;17.58;;
85738;SDS011;76182;41.498;22.100;2024-02-21T01:13:02;33.17;;;16.67;;
85738;SDS011;76182;41.498;22.100;2024-02-21T01:15:28;30.25;;;15.63;;
85738;SDS011;76182;41.498;22.100;2024-02-21T01:17:53;34.08;;;17.10;;
85738;SDS011;76182;41.498;22.100;2024-02-21T01:20:21;31.92;;;16.27;;
85738;SDS011;76182;41.498;22.100;2024-02-21T01:22:47;34.33;;;16.50;;
85738;SDS011;76182;41.498;22.100;2024-02-21T01:25:12;34.08;;;17.02;;
85738;SDS011;76182;41.498;22.100;2024-02-21T01:27:38;39.60;;;17.52;;
85738;SDS011;76182;41.498;22.100;2024-02-21T01:30:04;31.10;;;16.20;;
85738;SDS011;76182;41.498;22.100;2024-02-21T01:32:30;40.38;;;18.33;;
85738;SDS011;76182;41.498;22.100;2024-02-21T01:34:56;35.03;;;17.63;;
85738;SDS011;76182;41.498;22.100;2024-02-21T01:37:21;32.92;;;18.05;;
85738;SDS011;76182;41.498;22.100;2024-02-21T01:39:47;37.05;;;18.30;;
85738;SDS011;76182;41.498;22.100;2024-02-21T01:42:18;37.30;;;17.98;;
85738;SDS011;76182;41.498;22.100;2024-02-21T01:44:43;39.95;;;17.48;;
85738;SDS011;76182;41.498;22.100;2024-02-21T01:47:09;34.05;;;16.92;;
85738;SDS011;76182;41.498;22.100;2024-02-21T01:49:36;37.35;;;17.25;;
85738;SDS011;76182;41.498;22.100;2024-02-21T01:52:02;36.28;;;17.25;;
85738;SDS011;76182;41.498;22.100;2024-02-21T01:54:28;31.73;;;15.48;;
85738;SDS011;76182;41.498;22.100;2024-02-21T01:56:54;36.00;;;17.23;;
85738;SDS011;76182;41.498;22.100;2024-02-21T01:59:19;39.42;;;18.52;;
85738;SDS011;76182;41.498;22.100;2024-02-21T02:01:47;38.08;;;18.48;;
85738;SDS011;76182;41.498;22.100;2024-02-21T02:04:13;34.25;;;17.92;;
85738;SDS011;76182;41.498;22.100;2024-02-21T02:06:39;38.42;;;17.92;;
85738;SDS011;76182;41.498;22.100;2024-02-21T02:09:06;55.33;;;21.70;;
85738;SDS011;76182;41.498;22.100;2024-02-21T02:11:32;39.55;;;18.52;;
85738;SDS011;76182;41.498;22.100;2024-02-21T02:13:58;37.72;;;19.30;;
85738;SDS011;76182;41.498;22.100;2024-02-21T02:16:23;40.35;;;17.92;;
85738;SDS011;76182;41.498;22.100;2024-02-21T02:18:49;35.58;;;17.00;;
85738;SDS011;76182;41.498;22.100;2024-02-21T02:21:21;40.08;;;17.35;;
85738;SDS011;76182;41.498;22.100;2024-02-21T02:23:52;31.38;;;16.60;;
85738;SDS011;76182;41.498;22.100;2024-02-21T02:26:17;32.10;;;16.48;;
85738;SDS011;76182;41.498;22.100;2024-02-21T02:28:43;34.75;;;17.88;;
85738;SDS011;76182;41.498;22.100;2024-02-21T02:31:08;39.70;;;17.20;;
85738;SDS011;76182;41.498;22.100;2024-02-21T02:33:34;33.67;;;16.75;;
85738;SDS011;76182;41.498;22.100;2024-02-21T02:35:59;30.95;;;16.67;;
85738;SDS011;76182;41.498;22.100;2024-02-21T02:38:25;30.60;;;16.17;;
85738;SDS011;76182;41.498;22.100;2024-02-21T02:40:50;37.47;;;16.92;;
85738;SDS011;76182;41.498;22.100;2024-02-21T02:43:16;33.33;;;16.42;;
85738;SDS011;76182;41.498;22.100;2024-02-21T02:45:41;33.05;;;16.95;;
85738;SDS011;76182;41.498;22.100;2024-02-21T02:48:07;33.65;;;15.85;;
85738;SDS011;76182;41.498;22.100;2024-02-21T02:50:32;29.42;;;15.52;;
85738;SDS011;76182;41.498;22.100;2024-02-21T02:52:58;27.23;;;14.88;;
85738;SDS011;76182;41.498;22.100;2024-02-21T02:55:23;32.33;;;15.52;;
85738;SDS011;76182;41.498;22.100;2024-02-21T02:57:49;27.98;;;15.05;;
85738;SDS011;76182;41.498;22.100;2024-02-21T03:00:14;35.22;;;16.02;;
85738;SDS011;76182;41.498;22.100;2024-02-21T03:02:40;35.60;;;15.60;;
85738;SDS011;76182;41.498;22.100;2024-02-21T03:05:17;28.42;;;14.60;;
85738;SDS011;76182;41.498;22.100;2024-02-21T03:07:44;32.40;;;15.90;;
85738;SDS011;76182;41.498;22.100;2024-02-21T03:10:10;35.80;;;15.02;;
85738;SDS011;76182;41.498;22.100;2024-02-21T03:12:36;38.63;;;16.77;;
85738;SDS011;76182;41.498;22.100;2024-02-21T03:15:03;31.13;;;15.70;;
85738;SDS011;76182;41.498;22.100;2024-02-21T03:17:29;29.92;;;16.02;;
85738;SDS011;76182;41.498;22.100;2024-02-21T03:19:55;26.17;;;15.05;;
85738;SDS011;76182;41.498;22.100;2024-02-21T03:22:21;33.08;;;16.92;;
85738;SDS011;76182;41.498;22.100;2024-02-21T03:24:49;33.38;;;15.57;;
85738;SDS011;76182;41.498;22.100;2024-02-21T03:27:14;30.60;;;16.10;;
85738;SDS011;76182;41.498;22.100;2024-02-21T03:29:40;31.80;;;14.65;;
85738;SDS011;76182;41.498;22.100;2024-02-21T03:32:05;29.58;;;15.98;;
85738;SDS011;76182;41.498;22.100;2024-02-21T03:34:31;36.83;;;17.20;;
85738;SDS011;76182;41.498;22.100;2024-02-21T03:36:56;37.95;;;17.90;;
85738;SDS011;76182;41.498;22.100;2024-02-21T03:39:22;35.83;;;17.45;;
85738;SDS011;76182;41.498;22.100;2024-02-21T03:41:47;34.75;;;16.23;;
85738;SDS011;76182;41.498;22.100;2024-02-21T03:44:13;30.80;;;16.17;;
85738;SDS011;76182;41.498;22.100;2024-02-21T03:46:39;28.60;;;15.82;;
85738;SDS011;76182;41.498;22.100;2024-02-21T03:49:04;31.77;;;16.50;;
85738;SDS011;76182;41.498;22.100;2024-02-21T03:51:30;34.47;;;16.95;;
85738;SDS011;76182;41.498;22.100;2024-02-21T03:53:55;34.30;;;16.38;;
85738;SDS011;76182;41.498;22.100;2024-02-21T03:56:20;34.53;;;16.98;;
85738;SDS011;76182;41.498;22.100;2024-02-21T03:58:46;34.05;;;16.58;;
85738;SDS011;76182;41.498;22.100;2024-02-21T04:03:37;31.02;;;15.35;;
85738;SDS011;76182;41.498;22.100;2024-02-21T04:06:03;36.58;;;17.20;;
85738;SDS011;76182;41.498;22.100;2024-02-21T04:08:28;40.85;;;18.40;;
85738;SDS011;76182;41.498;22.100;2024-02-21T04:10:54;35.65;;;18.48;;
85738;SDS011;76182;41.498;22.100;2024-02-21T04:13:19;36.00;;;19.35;;
85738;SDS011;76182;41.498;22.100;2024-02-21T04:15:45;47.92;;;21.98;;
85738;SDS011;76182;41.498;22.100;2024-02-21T04:18:10;43.80;;;22.38;;
85738;SDS011;76182;41.498;22.100;2024-02-21T04:20:35;43.35;;;20.23;;
85738;SDS011;76182;41.498;22.100;2024-02-21T04:23:01;42.33;;;23.13;;
85738;SDS011;76182;41.498;22.100;2024-02-21T04:25:26;47.58;;;21.38;;
85738;SDS011;76182;41.498;22.100;2024-02-21T04:27:52;46.50;;;22.15;;
85738;SDS011;76182;41.498;22.100;2024-02-21T04:30:18;42.67;;;22.48;;
85738;SDS011;76182;41.498;22.100;2024-02-21T04:32:43;52.97;;;23.10;;
85738;SDS011;76182;41.498;22.100;2024-02-21T04:35:08;49.17;;;22.38;;
85738;SDS011;76182;41.498;22.100;2024-02-21T04:37:34;40.60;;;20.83;;
85738;SDS011;76182;41.498;22.100;2024-02-21T04:39:59;45.80;;;23.77;;
85738;SDS011;76182;41.498;22.100;2024-02-21T04:42:25;48.08;;;21.80;;
85738;SDS011;76182;41.498;22.100;2024-02-21T04:44:51;44.22;;;23.20;;
85738;SDS011;76182;41.498;22.100;2024-02-21T04:47:16;53.72;;;22.25;;
85738;SDS011;76182;41.498;22.100;2024-02-21T04:49:42;49.55;;;22.50;;
85738;SDS011;76182;41.498;22.100;2024-02-21T04:52:08;48.17;;;23.30;;
85738;SDS011;76182;41.498;22.100;2024-02-21T04:54:34;46.80;;;22.80;;
85738;SDS011;76182;41.498;22.100;2024-02-21T04:57:00;41.95;;;20.35;;
85738;SDS011;76182;41.498;22.100;2024-02-21T04:59:26;39.05;;;20.58;;
85738;SDS011;76182;41.498;22.100;2024-02-21T05:01:51;38.10;;;20.50;;
85738;SDS011;76182;41.498;22.100;2024-02-21T05:04:17;40.85;;;19.35;;
85738;SDS011;76182;41.498;22.100;2024-02-21T05:09:08;33.13;;;16.27;;
85738;SDS011;76182;41.498;22.100;2024-02-21T05:11:34;37.13;;;18.25;;
85738;SDS011;76182;41.498;22.100;2024-02-21T05:14:00;37.95;;;18.02;;
85738;SDS011;76182;41.498;22.100;2024-02-21T05:16:26;39.05;;;18.23;;
85738;SDS011;76182;41.498;22.100;2024-02-21T05:18:51;34.50;;;17.63;;
85738;SDS011;76182;41.498;22.100;2024-02-21T05:21:17;33.83;;;18.10;;
85738;SDS011;76182;41.498;22.100;2024-02-21T05:23:42;38.80;;;17.77;;
85738;SDS011;76182;41.498;22.100;2024-02-21T05:26:08;35.67;;;16.88;;
85738;SDS011;76182;41.498;22.100;2024-02-21T05:28:34;34.90;;;16.33;;
85738;SDS011;76182;41.498;22.100;2024-02-21T05:30:59;37.17;;;17.98;;
85738;SDS011;76182;41.498;22.100;2024-02-21T05:33:25;32.10;;;15.95;;
85738;SDS011;76182;41.498;22.100;2024-02-21T05:35:51;35.65;;;15.88;;
85738;SDS011;76182;41.498;22.100;2024-02-21T05:38:16;33.53;;;16.65;;
85738;SDS011;76182;41.498;22.100;2024-02-21T05:40:42;34.65;;;16.17;;
85738;SDS011;76182;41.498;22.100;2024-02-21T05:43:09;31.42;;;15.90;;
85738;SDS011;76182;41.498;22.100;2024-02-21T05:45:35;26.33;;;14.52;;
85738;SDS011;76182;41.498;22.100;2024-02-21T05:48:00;36.03;;;15.93;;
85738;SDS011;76182;41.498;22.100;2024-02-21T05:50:27;40.97;;;17.63;;
85738;SDS011;76182;41.498;22.100;2024-02-21T05:52:56;36.22;;;17.38;;
85738;SDS011;76182;41.498;22.100;2024-02-21T05:55:21;46.53;;;27.00;;
85738;SDS011;76182;41.498;22.100;2024-02-21T05:57:47;38.25;;;21.67;;
85738;SDS011;76182;41.498;22.100;2024-02-21T06:00:14;43.55;;;19.20;;
85738;SDS011;76182;41.498;22.100;2024-02-21T06:02:40;32.17;;;14.93;;
85738;SDS011;76182;41.498;22.100;2024-02-21T06:05:06;35.20;;;17.65;;
85738;SDS011;76182;41.498;22.100;2024-02-21T06:07:34;44.10;;;18.92;;
85738;SDS011;76182;41.498;22.100;2024-02-21T06:10:01;39.08;;;18.27;;
85738;SDS011;76182;41.498;22.100;2024-02-21T06:12:27;41.50;;;18.48;;
85738;SDS011;76182;41.498;22.100;2024-02-21T06:14:53;33.50;;;16.52;;
85738;SDS011;76182;41.498;22.100;2024-02-21T06:17:18;46.40;;;20.63;;
85738;SDS011;76182;41.498;22.100;2024-02-21T06:19:44;40.78;;;18.50;;
85738;SDS011;76182;41.498;22.100;2024-02-21T06:22:12;38.88;;;18.83;;
85738;SDS011;76182;41.498;22.100;2024-02-21T06:24:38;53.78;;;20.35;;
85738;SDS011;76182;41.498;22.100;2024-02-21T06:27:06;38.63;;;18.35;;
85738;SDS011;76182;41.498;22.100;2024-02-21T06:29:33;42.08;;;20.05;;
85738;SDS011;76182;41.498;22.100;2024-02-21T06:31:58;59.83;;;26.77;;
85738;SDS011;76182;41.498;22.100;2024-02-21T06:34:24;45.47;;;23.33;;
85738;SDS011;76182;41.498;22.100;2024-02-21T06:36:50;35.60;;;20.08;;
85738;SDS011;76182;41.498;22.100;2024-02-21T06:39:17;34.13;;;16.48;;
85738;SDS011;76182;41.498;22.100;2024-02-21T06:41:43;30.20;;;16.75;;
85738;SDS011;76182;41.498;22.100;2024-02-21T06:44:08;30.67;;;16.02;;
85738;SDS011;76182;41.498;22.100;2024-02-21T06:46:34;25.73;;;14.75;;
85738;SDS011;76182;41.498;22.100;2024-02-21T06:49:02;25.50;;;15.30;;
85738;SDS011;76182;41.498;22.100;2024-02-21T06:51:31;26.25;;;14.88;;
85738;SDS011;76182;41.498;22.100;2024-02-21T06:53:56;28.55;;;14.13;;
85738;SDS011;76182;41.498;22.100;2024-02-21T06:56:23;28.63;;;15.93;;
85738;SDS011;76182;41.498;22.100;2024-02-21T06:58:56;28.77;;;16.30;;
85738;SDS011;76182;41.498;22.100;2024-02-21T07:01:23;29.08;;;15.98;;
85738;SDS011;76182;41.498;22.100;2024-02-21T07:03:49;32.20;;;17.05;;
85738;SDS011;76182;41.498;22.100;2024-02-21T07:06:14;34.90;;;19.80;;
85738;SDS011;76182;41.498;22.100;2024-02-21T07:08:40;35.47;;;20.17;;
85738;SDS011;76182;41.498;22.100;2024-02-21T07:11:05;43.95;;;25.15;;
85738;SDS011;76182;41.498;22.100;2024-02-21T07:13:32;51.95;;;29.05;;
85738;SDS011;76182;41.498;22.100;2024-02-21T07:15:57;44.20;;;26.20;;
85738;SDS011;76182;41.498;22.100;2024-02-21T07:18:23;36.45;;;19.75;;
85738;SDS011;76182;41.498;22.100;2024-02-21T07:20:50;37.03;;;19.90;;
85738;SDS011;76182;41.498;22.100;2024-02-21T07:23:16;43.53;;;21.67;;
85738;SDS011;76182;41.498;22.100;2024-02-21T07:25:41;39.53;;;22.50;;
85738;SDS011;76182;41.498;22.100;2024-02-21T07:28:07;37.20;;;21.42;;
85738;SDS011;76182;41.498;22.100;2024-02-21T07:30:32;35.60;;;19.58;;
85738;SDS011;76182;41.498;22.100;2024-02-21T07:32:58;32.17;;;19.95;;
85738;SDS011;76182;41.498;22.100;2024-02-21T07:35:23;38.83;;;20.83;;
85738;SDS011;76182;41.498;22.100;2024-02-21T07:37:50;29.35;;;18.50;;
85738;SDS011;76182;41.498;22.100;2024-02-21T07:40:16;29.63;;;17.02;;
85738;SDS011;76182;41.498;22.100;2024-02-21T07:42:42;28.55;;;15.88;;
85738;SDS011;76182;41.498;22.100;2024-02-21T07:45:10;36.25;;;17.67;;
85738;SDS011;76182;41.498;22.100;2024-02-21T07:47:39;35.85;;;19.02;;
85738;SDS011;76182;41.498;22.100;2024-02-21T07:50:05;28.20;;;15.65;;
85738;SDS011;76182;41.498;22.100;2024-02-21T07:52:31;27.73;;;15.60;;
85738;SDS011;76182;41.498;22.100;2024-02-21T07:54:56;30.10;;;16.80;;
85738;SDS011;76182;41.498;22.100;2024-02-21T07:57:22;23.50;;;15.05;;
85738;SDS011;76182;41.498;22.100;2024-02-21T07:59:48;28.42;;;16.50;;
85738;SDS011;76182;41.498;22.100;2024-02-21T08:02:16;26.60;;;14.55;;
85738;SDS011;76182;41.498;22.100;2024-02-21T08:04:42;28.25;;;16.40;;
85738;SDS011;76182;41.498;22.100;2024-02-21T08:07:09;31.90;;;16.08;;
85738;SDS011;76182;41.498;22.100;2024-02-21T08:09:35;25.90;;;14.85;;
85738;SDS011;76182;41.498;22.100;2024-02-21T08:12:03;30.60;;;15.40;;
85738;SDS011;76182;41.498;22.100;2024-02-21T08:14:29;26.30;;;15.07;;
85738;SDS011;76182;41.498;22.100;2024-02-21T08:16:54;30.70;;;16.02;;
85738;SDS011;76182;41.498;22.100;2024-02-21T08:19:21;31.10;;;16.83;;
85738;SDS011;76182;41.498;22.100;2024-02-21T08:21:47;36.83;;;18.05;;
85738;SDS011;76182;41.498;22.100;2024-02-21T08:24:16;30.60;;;18.33;;
85738;SDS011;76182;41.498;22.100;2024-02-21T08:26:42;32.22;;;16.33;;
85738;SDS011;76182;41.498;22.100;2024-02-21T08:29:09;27.80;;;15.82;;
85738;SDS011;76182;41.498;22.100;2024-02-21T08:31:35;26.98;;;14.55;;
85738;SDS011;76182;41.498;22.100;2024-02-21T08:34:01;30.20;;;16.58;;
85738;SDS011;76182;41.498;22.100;2024-02-21T08:38:58;43.15;;;16.60;;
85738;SDS011;76182;41.498;22.100;2024-02-21T08:41:24;23.40;;;14.40;;
85738;SDS011;76182;41.498;22.100;2024-02-21T08:43:53;28.65;;;14.55;;
85738;SDS011;76182;41.498;22.100;2024-02-21T08:46:19;23.63;;;14.32;;
85738;SDS011;76182;41.498;22.100;2024-02-21T08:48:46;23.00;;;14.77;;
85738;SDS011;76182;41.498;22.100;2024-02-21T08:51:14;28.27;;;15.30;;
85738;SDS011;76182;41.498;22.100;2024-02-21T08:53:40;26.30;;;14.45;;
85738;SDS011;76182;41.498;22.100;2024-02-21T08:56:07;25.85;;;14.10;;
85738;SDS011;76182;41.498;22.100;2024-02-21T08:58:33;29.48;;;14.82;;
85738;SDS011;76182;41.498;22.100;2024-02-21T09:00:58;30.98;;;16.25;;
85738;SDS011;76182;41.498;22.100;2024-02-21T09:03:24;27.85;;;16.50;;
85738;SDS011;76182;41.498;22.100;2024-02-21T09:05:50;26.63;;;14.70;;
85738;SDS011;76182;41.498;22.100;2024-02-21T09:08:15;19.73;;;12.35;;
85738;SDS011;76182;41.498;22.100;2024-02-21T09:10:41;20.58;;;11.38;;
85738;SDS011;76182;41.498;22.100;2024-02-21T09:13:06;24.38;;;13.10;;
85738;SDS011;76182;41.498;22.100;2024-02-21T09:15:33;27.08;;;12.90;;
85738;SDS011;76182;41.498;22.100;2024-02-21T09:17:59;19.67;;;11.48;;
85738;SDS011;76182;41.498;22.100;2024-02-21T09:20:24;16.83;;;11.18;;
85738;SDS011;76182;41.498;22.100;2024-02-21T09:22:50;19.23;;;11.50;;
85738;SDS011;76182;41.498;22.100;2024-02-21T09:25:17;20.92;;;12.10;;
85738;SDS011;76182;41.498;22.100;2024-02-21T09:27:43;19.10;;;11.73;;
85738;SDS011;76182;41.498;22.100;2024-02-21T09:30:09;18.20;;;10.93;;
85738;SDS011;76182;41.498;22.100;2024-02-21T09:32:35;19.13;;;11.30;;
85738;SDS011;76182;41.498;22.100;2024-02-21T09:35:01;17.98;;;10.45;;
85738;SDS011;76182;41.498;22.100;2024-02-21T09:37:26;19.23;;;10.00;;
85738;SDS011;76182;41.498;22.100;2024-02-21T09:39:52;16.33;;;9.48;;
85738;SDS011;76182;41.498;22.100;2024-02-21T09:42:20;16.08;;;9.02;;
85738;SDS011;76182;41.498;22.100;2024-02-21T09:44:49;16.30;;;10.07;;
85738;SDS011;76182;41.498;22.100;2024-02-21T09:47:29;29.85;;;11.45;;
85738;SDS011;76182;41.498;22.100;2024-02-21T09:50:05;16.90;;;10.00;;
85738;SDS011;76182;41.498;22.100;2024-02-21T09:52:32;14.35;;;9.93;;
85738;SDS011;76182;41.498;22.100;2024-02-21T09:55:00;19.70;;;10.07;;
85738;SDS011;76182;41.498;22.100;2024-02-21T09:57:26;20.13;;;10.13;;
85738;SDS011;76182;41.498;22.100;2024-02-21T09:59:53;19.35;;;10.52;;
85738;SDS011;76182;41.498;22.100;2024-02-21T10:02:22;16.25;;;9.27;;
85738;SDS011;76182;41.498;22.100;2024-02-21T10:04:48;17.65;;;10.45;;
85738;SDS011;76182;41.498;22.100;2024-02-21T10:07:13;17.98;;;9.57;;
85738;SDS011;76182;41.498;22.100;2024-02-21T10:09:39;11.65;;;7.00;;
85738;SDS011;76182;41.498;22.100;2024-02-21T10:14:34;13.18;;;7.43;;
85738;SDS011;76182;41.498;22.100;2024-02-21T10:17:00;10.63;;;7.07;;
85738;SDS011;76182;41.498;22.100;2024-02-21T10:19:26;10.63;;;7.05;;
85738;SDS011;76182;41.498;22.100;2024-02-21T10:21:59;12.10;;;6.95;;
85738;SDS011;76182;41.498;22.100;2024-02-21T10:24:33;12.05;;;7.15;;
85738;SDS011;76182;41.498;22.100;2024-02-21T10:27:01;13.68;;;7.25;;
85738;SDS011;76182;41.498;22.100;2024-02-21T10:29:30;15.52;;;7.65;;
85738;SDS011;76182;41.498;22.100;2024-02-21T10:32:12;11.18;;;7.43;;
85738;SDS011;76182;41.498;22.100;2024-02-21T10:34:39;11.32;;;7.65;;
85738;SDS011;76182;41.498;22.100;2024-02-21T10:37:06;12.73;;;8.23;;
85738;SDS011;76182;41.498;22.100;2024-02-21T10:39:33;26.23;;;8.02;;
85738;SDS011;76182;41.498;22.100;2024-02-21T10:42:12;13.45;;;7.88;;
85738;SDS011;76182;41.498;22.100;2024-02-21T10:44:42;12.30;;;6.93;;
85738;SDS011;76182;41.498;22.100;2024-02-21T10:47:11;10.40;;;6.82;;
85738;SDS011;76182;41.498;22.100;2024-02-21T10:49:41;16.80;;;7.35;;
85738;SDS011;76182;41.498;22.100;2024-02-21T10:52:13;11.40;;;7.68;;
85738;SDS011;76182;41.498;22.100;2024-02-21T10:57:13;21.77;;;7.57;;
85738;SDS011;76182;41.498;22.100;2024-02-21T10:59:39;15.93;;;7.57;;
85738;SDS011;76182;41.498;22.100;2024-02-21T11:02:06;12.80;;;7.60;;
85738;SDS011;76182;41.498;22.100;2024-02-21T11:04:32;13.05;;;7.55;;
85738;SDS011;76182;41.498;22.100;2024-02-21T11:07:05;11.43;;;6.97;;
85738;SDS011;76182;41.498;22.100;2024-02-21T11:09:31;12.60;;;7.50;;
85738;SDS011;76182;41.498;22.100;2024-02-21T11:11:57;11.75;;;6.38;;
85738;SDS011;76182;41.498;22.100;2024-02-21T11:14:25;10.00;;;6.53;;
85738;SDS011;76182;41.498;22.100;2024-02-21T11:16:52;10.02;;;6.57;;
85738;SDS011;76182;41.498;22.100;2024-02-21T11:19:30;10.35;;;6.75;;
85738;SDS011;76182;41.498;22.100;2024-02-21T11:21:56;9.55;;;6.07;;
85738;SDS011;76182;41.498;22.100;2024-02-21T11:24:29;11.68;;;6.13;;
85738;SDS011;76182;41.498;22.100;2024-02-21T11:26:56;9.00;;;6.18;;
85738;SDS011;76182;41.498;22.100;2024-02-21T11:29:33;10.73;;;6.90;;
85738;SDS011;76182;41.498;22.100;2024-02-21T11:31:58;8.63;;;6.13;;
85738;SDS011;76182;41.498;22.100;2024-02-21T11:34:27;7.75;;;5.25;;
85738;SDS011;76182;41.498;22.100;2024-02-21T11:36:52;8.10;;;4.95;;
85738;SDS011;76182;41.498;22.100;2024-02-21T11:39:19;8.15;;;5.07;;
85738;SDS011;76182;41.498;22.100;2024-02-21T11:41:47;7.15;;;5.10;;
85738;SDS011;76182;41.498;22.100;2024-02-21T11:44:13;8.65;;;5.40;;
85738;SDS011;76182;41.498;22.100;2024-02-21T11:46:38;8.57;;;5.63;;
85738;SDS011;76182;41.498;22.100;2024-02-21T11:49:04;7.60;;;5.32;;
85738;SDS011;76182;41.498;22.100;2024-02-21T11:51:30;7.88;;;5.45;;
85738;SDS011;76182;41.498;22.100;2024-02-21T11:53:55;9.02;;;5.43;;
85738;SDS011;76182;41.498;22.100;2024-02-21T11:56:20;9.13;;;5.38;;
85738;SDS011;76182;41.498;22.100;2024-02-21T11:58:47;9.50;;;4.50;;
85738;SDS011;76182;41.498;22.100;2024-02-21T12:01:13;7.90;;;4.68;;
85738;SDS011;76182;41.498;22.100;2024-02-21T12:03:39;8.88;;;4.45;;
85738;SDS011;76182;41.498;22.100;2024-02-21T12:06:06;8.02;;;4.30;;
85738;SDS011;76182;41.498;22.100;2024-02-21T12:08:42;6.32;;;3.90;;
85738;SDS011;76182;41.498;22.100;2024-02-21T12:11:21;6.60;;;4.00;;
85738;SDS011;76182;41.498;22.100;2024-02-21T12:13:58;7.63;;;4.10;;
85738;SDS011;76182;41.498;22.100;2024-02-21T12:16:25;9.02;;;3.55;;
85738;SDS011;76182;41.498;22.100;2024-02-21T12:18:53;9.77;;;3.00;;
85738;SDS011;76182;41.498;22.100;2024-02-21T12:21:19;6.63;;;2.83;;
85738;SDS011;76182;41.498;22.100;2024-02-21T12:23:44;11.98;;;3.50;;
85738;SDS011;76182;41.498;22.100;2024-02-21T12:26:12;5.95;;;3.15;;
85738;SDS011;76182;41.498;22.100;2024-02-21T12:28:37;4.78;;;3.00;;
85738;SDS011;76182;41.498;22.100;2024-02-21T12:31:02;7.22;;;3.80;;
85738;SDS011;76182;41.498;22.100;2024-02-21T12:33:29;4.88;;;3.42;;
85738;SDS011;76182;41.498;22.100;2024-02-21T12:35:55;4.53;;;3.00;;
85738;SDS011;76182;41.498;22.100;2024-02-21T12:38:20;4.25;;;3.00;;
85738;SDS011;76182;41.498;22.100;2024-02-21T12:40:46;6.25;;;3.30;;
85738;SDS011;76182;41.498;22.100;2024-02-21T12:43:11;5.57;;;3.22;;
85738;SDS011;76182;41.498;22.100;2024-02-21T12:45:37;5.70;;;3.40;;
85738;SDS011;76182;41.498;22.100;2024-02-21T12:48:02;4.72;;;3.38;;
85738;SDS011;76182;41.498;22.100;2024-02-21T12:50:29;10.40;;;3.40;;
85738;SDS011;76182;41.498;22.100;2024-02-21T12:52:56;5.70;;;3.63;;
85738;SDS011;76182;41.498;22.100;2024-02-21T12:55:23;5.32;;;3.53;;
85738;SDS011;76182;41.498;22.100;2024-02-21T12:57:49;7.78;;;3.97;;
85738;SDS011;76182;41.498;22.100;2024-02-21T13:00:14;3.80;;;2.90;;
85738;SDS011;76182;41.498;22.100;2024-02-21T13:02:40;5.07;;;3.35;;
85738;SDS011;76182;41.498;22.100;2024-02-21T13:05:06;6.75;;;3.60;;
85738;SDS011;76182;41.498;22.100;2024-02-21T13:07:33;4.40;;;3.22;;
85738;SDS011;76182;41.498;22.100;2024-02-21T13:09:59;5.32;;;3.60;;
85738;SDS011;76182;41.498;22.100;2024-02-21T13:12:25;6.18;;;3.53;;
85738;SDS011;76182;41.498;22.100;2024-02-21T13:14:55;4.90;;;3.20;;
85738;SDS011;76182;41.498;22.100;2024-02-21T13:17:20;7.22;;;3.60;;
85738;SDS011;76182;41.498;22.100;2024-02-21T13:19:47;13.43;;;4.03;;
85738;SDS011;76182;41.498;22.100;2024-02-21T13:22:13;5.53;;;3.40;;
85738;SDS011;76182;41.498;22.100;2024-02-21T13:24:38;4.80;;;3.45;;
85738;SDS011;76182;41.498;22.100;2024-02-21T13:27:05;9.13;;;4.30;;
85738;SDS011;76182;41.498;22.100;2024-02-21T13:29:30;5.60;;;3.83;;
85738;SDS011;76182;41.498;22.100;2024-02-21T13:31:56;9.75;;;4.20;;
85738;SDS011;76182;41.498;22.100;2024-02-21T13:34:21;6.85;;;3.88;;
85738;SDS011;76182;41.498;22.100;2024-02-21T13:36:47;6.80;;;3.95;;
85738;SDS011;76182;41.498;22.100;2024-02-21T13:39:12;6.05;;;3.88;;
85738;SDS011;76182;41.498;22.100;2024-02-21T13:41:41;7.00;;;4.85;;
85738;SDS011;76182;41.498;22.100;2024-02-21T13:44:07;34.25;;;7.45;;
85738;SDS011;76182;41.498;22.100;2024-02-21T13:46:34;6.13;;;3.80;;
85738;SDS011;76182;41.498;22.100;2024-02-21T13:49:04;5.65;;;3.55;;
85738;SDS011;76182;41.498;22.100;2024-02-21T13:51:31;8.43;;;3.90;;
85738;SDS011;76182;41.498;22.100;2024-02-21T13:53:57;7.93;;;3.92;;
85738;SDS011;76182;41.498;22.100;2024-02-21T13:56:24;6.70;;;3.28;;
85738;SDS011;76182;41.498;22.100;2024-02-21T13:58:50;7.93;;;4.07;;
85738;SDS011;76182;41.498;22.100;2024-02-21T14:01:15;7.88;;;3.60;;
85738;SDS011;76182;41.498;22.100;2024-02-21T14:03:41;6.97;;;3.92;;
85738;SDS011;76182;41.498;22.100;2024-02-21T14:06:06;7.20;;;5.07;;
85738;SDS011;76182;41.498;22.100;2024-02-21T14:08:32;9.23;;;3.65;;
85738;SDS011;76182;41.498;22.100;2024-02-21T14:10:59;20.95;;;6.63;;
85738;SDS011;76182;41.498;22.100;2024-02-21T14:13:25;4.90;;;3.22;;
85738;SDS011;76182;41.498;22.100;2024-02-21T14:15:51;8.88;;;3.38;;
85738;SDS011;76182;41.498;22.100;2024-02-21T14:18:16;5.53;;;3.72;;
85738;SDS011;76182;41.498;22.100;2024-02-21T14:20:42;14.43;;;3.83;;
85738;SDS011;76182;41.498;22.100;2024-02-21T14:23:08;5.13;;;3.47;;